Latest Coastal Weather Observations for Cape Grim

IDV60701

Issued at 9:41 am EST Friday 4 September 2015 (issued every 10 minutes, with the page automatically refreshed every 10 minutes)

About coastal observations | Map of coastal stations | Coastal observations for VIC | Marine services | Other Formats
Station Details ID: 091331 Name: CAPE GRIM Lat: -40.68 Lon: 144.69 Height: 86.0 m
Data from the previous 72 hours. | See also: Recent months at Cape Grim
Date/Time
EST
Temp

°C
Wind Pressure Rain
since 9am
mm
Weather Cloud Vis
km
Sea
Height
m
Swell
Dir
 
Speed
knots
Gust
knots
hPa Trend Height
m
Period
s
Dir
04/09:30am 10.1 W 12 19 1023.1 - 0.0 - Partly cloudy - - - - -
04/09:00am 10.2 WSW 12 20 1023.2 - 0.0 - Cloudy - - - - -
04/08:30am 10.0 SW 12 20 1023.3 - 0.0 - Cloudy - - - - -
04/08:00am 9.8 WSW 11 19 1023.3 - 0.0 - Cloudy - - - - -
04/07:30am 9.6 SW 13 20 1023.0 - 0.0 - Cloudy - - - - -
04/07:00am 9.4 SW 13 23 1022.7 - 0.0 - Cloudy - - - - -
04/06:30am 9.1 SW 13 16 1022.6 - 0.0 - Cloudy - - - - -
04/06:00am 9.2 SW 14 23 1022.6 - 0.0 - Cloudy - - - - -
04/05:30am 9.2 SW 15 25 1022.4 - 0.0 - Cloudy - - - - -
04/05:17am 9.0 SW 15 25 1022.4 - 0.0 - Cloudy - - - - -
04/05:00am 9.2 SW 14 18 1022.4 - 0.0 - Cloudy - - - - -
04/04:30am 9.2 SW 17 21 1022.1 - 0.0 - Cloudy - - - - -
04/04:00am 9.1 SW 19 24 1022.0 - 0.0 - Cloudy - - - - -
04/03:30am 8.3 SSW 12 18 1022.1 - 0.0 - Cloudy - - - - -
04/03:00am 8.5 SSW 12 19 1022.2 - 0.0 - Mostly clear - - - - -
04/02:30am 8.2 SSW 17 25 1022.3 - 0.0 - Partly cloudy - - - - -
04/02:00am 8.0 SSW 13 19 1022.2 - 0.0 - Partly cloudy - - - - -
04/01:30am 7.9 SSW 15 20 1022.1 - 0.0 - - - - - - -
04/01:00am 7.9 SSW 15 20 1022.0 - 0.0 - - - - - - -
04/12:30am 8.1 SSW 17 22 1022.0 - 0.0 - - - - - - -
04/12:00am 8.0 SSW 16 22 1022.2 - 0.0 - - - - - - -
 
Date/Time
EST
Temp

°C
Wind Pressure Rain
since 9am
mm
Weather Cloud Vis
km
Sea
Height
m
Swell
Dir
 
Speed
knots
Gust
knots
hPa Trend Height
m
Period
s
Dir
03/11:30pm 7.9 SSW 16 20 1022.3 - 0.0 - - - - - - -
03/11:00pm 7.9 SSW 16 21 1022.1 - 0.0 - - - - - - -
03/10:30pm 7.8 SSW 16 22 1022.0 - 0.0 - - - - - - -
03/10:00pm 7.1 S 12 18 1021.9 - 0.0 - - - - - - -
03/09:30pm 7.8 S 15 19 1021.7 - 0.0 - - - - - - -
03/09:00pm 7.7 S 13 17 1021.4 - 0.0 - - - - - - -
03/08:30pm 8.3 S 14 19 1021.1 - 0.0 - Partly cloudy - - - - -
03/08:04pm 8.4 S 17 27 1020.7 - 0.0 - - - - - - -
03/08:00pm 8.6 S 19 27 1020.5 - 0.0 - - - - - - -
03/07:30pm 8.6 SSW 20 31 1020.3 - 0.0 - - - - - - -
03/07:22pm 8.7 S 20 31 1020.2 - 0.0 - - - - - - -
03/07:00pm 8.6 S 21 29 1020.0 - 0.0 - - - - - - -
03/06:43pm 8.6 SSW 18 28 1019.8 - 0.0 - - - - - - -
03/06:30pm 8.7 SSW 19 27 1019.8 - 0.0 - - - - - - -
03/06:00pm 9.0 SSW 24 30 1019.1 - 0.0 - - - - - - -
03/05:30pm 9.1 S 21 29 1018.9 - 0.0 - Partly cloudy - - - - -
03/05:09pm 9.3 SSW 23 33 1018.6 - 0.0 - - - - - - -
03/05:00pm 9.4 SSW 25 33 1018.2 - 0.0 - - - - - - -
03/04:44pm 9.7 SSW 23 33 1017.9 - 0.0 - - - - - - -
03/04:30pm 9.6 SSW 26 33 1017.8 - 0.0 - - - - - - -
03/04:11pm 9.9 SSW 25 35 1017.3 - 0.0 - - - - - - -
03/04:00pm 9.9 SSW 27 34 1016.9 - 0.0 - - - - - - -
03/03:30pm 10.0 SSW 27 38 1016.5 - 0.0 - - - - - - -
03/03:07pm 10.2 SSW 24 35 1016.3 - 0.0 - - - - - - -
03/03:00pm 10.2 SSW 25 33 1016.4 - 0.0 - - - - - - -
03/02:30pm 10.4 SSW 25 35 1016.2 - 0.0 - - - - - - -
03/02:04pm 10.4 SSW 25 37 1015.8 - 0.0 - - - - - - -
03/02:00pm 10.3 SSW 25 34 1015.7 - 0.0 - - - - - - -
03/01:30pm 10.5 SSW 27 37 1015.4 - 0.0 - - - - - - -
03/01:10pm 10.5 SSW 24 34 1015.6 - 0.0 - - - - - - -
03/01:00pm 10.6 SSW 25 34 1015.6 - 0.0 - - - - - - -
03/12:36pm 10.8 SSW 22 32 1015.8 - 0.0 - - - - - - -
03/12:30pm 11.0 SSW 24 33 1015.8 - 0.0 - - - - - - -
03/12:00pm 10.8 SSW 24 34 1015.4 - 0.0 - - - - - - -
03/11:52am 10.9 SSW 24 34 1015.5 - 0.0 - - - - - - -
03/11:30am 10.6 SSW 23 30 1015.5 - 0.0 - - - - - - -
03/11:00am 10.8 SSW 23 29 1015.5 - 0.0 - - - - - - -
03/10:30am 10.5 SSW 22 31 1015.2 - 0.0 - Partly cloudy - - - - -
03/10:00am 10.4 SSW 24 32 1014.8 - 0.0 - - - - - - -
03/09:30am 10.3 SSW 18 26 1014.5 - 0.0 - - - - - - -
03/09:00am 9.9 SSW 17 21 1014.1 - 0.0 - - - - - - -
03/08:30am 9.6 S 17 24 1013.6 - 0.0 - - - - - - -
03/08:00am 9.4 S 18 26 1012.9 - 0.0 - - - - - - -
03/07:30am 8.8 S 19 25 1012.1 - 0.0 - Partly cloudy - - - - -
03/07:00am 8.9 S 19 25 1011.4 - 0.0 - Partly cloudy - - - - -
03/06:30am 9.0 SSW 19 25 1010.8 - 0.0 - Partly cloudy - - - - -
03/06:28am 9.1 S 19 25 1010.8 - 0.0 - Partly cloudy - - - - -
03/06:00am 9.2 SSW 23 30 1010.1 - 0.0 - Cloudy - - - - -
03/05:40am 9.6 SSW 21 29 1010.0 - 0.0 - Partly cloudy - - - - -
03/05:30am 10.5 SW 15 19 1010.0 - 0.0 - Partly cloudy - - - - -
03/05:00am 10.3 SW 12 17 1009.9 - 0.0 - Partly cloudy - - - - -
03/04:30am 9.7 SW 10 13 1009.8 - 0.0 - Cloudy - - - - -
03/04:00am 9.5 SW 7 9 1009.6 - 0.0 - Cloudy - - - - -
03/03:30am 9.2 SW 6 8 1009.6 - 0.0 - Partly cloudy - - - - -
03/03:00am 8.8 SSE 5 7 1009.3 - 0.0 - Partly cloudy - - - - -
03/02:30am 8.7 SE 5 6 1009.4 - 0.0 - Partly cloudy - - - - -
03/02:00am 8.3 ESE 8 9 1009.7 - 0.0 - - - - - - -
03/01:30am 8.2 ESE 9 10 1009.8 - 0.0 - Partly cloudy - - - - -
03/01:00am 8.3 E 9 9 1009.8 - 0.0 - - - - - - -
03/12:30am 8.4 E 9 11 1009.8 - 0.0 - Partly cloudy - - - - -
03/12:00am 8.5 ESE 11 13 1009.7 - 0.0 - Cloudy - - - - -
 
Date/Time
EST
Temp

°C
Wind Pressure Rain
since 9am
mm
Weather Cloud Vis
km
Sea
Height
m
Swell
Dir
 
Speed
knots
Gust
knots
hPa Trend Height
m
Period
s
Dir
02/11:30pm 8.6 E 11 12 1009.8 - 0.0 - Partly cloudy - - - - -
02/11:00pm 8.7 E 11 12 1009.9 - 0.0 - Cloudy - - - - -
02/10:30pm 8.9 E 10 11 1009.9 - 0.0 - Cloudy - - - - -
02/10:00pm 9.0 E 11 12 1010.0 - 0.0 - Partly cloudy - - - - -
02/09:30pm 9.0 E 12 13 1010.0 - 0.0 - Cloudy - - - - -
02/09:00pm 8.9 E 12 14 1010.1 - 0.0 - Cloudy - - - - -
02/08:30pm 8.9 E 12 14 1010.0 - 0.0 - Cloudy - - - - -
02/08:00pm 8.8 E 12 14 1009.9 - 0.0 - Partly cloudy - - - - -
02/07:30pm 8.8 E 12 14 1009.7 - 0.0 - Partly cloudy - - - - -
02/07:00pm 9.0 E 14 17 1009.2 - 0.0 - - - - - - -
02/06:30pm 9.1 E 14 17 1008.9 - 0.0 - Partly cloudy - - - - -
02/06:00pm 9.2 E 17 19 1008.6 - 0.0 - Mostly cloudy - - - - -
02/05:30pm 9.5 ENE 17 20 1008.2 - 0.0 - - - - - - -
02/05:00pm 9.7 E 16 20 1008.2 - 0.0 - - - - - - -
02/04:30pm 10.3 ENE 17 22 1008.4 - 0.0 - Partly cloudy - - - - -
02/04:00pm 11.1 ENE 17 20 1008.5 - 0.0 - Partly cloudy - - - - -
02/03:30pm 10.9 ENE 18 22 1008.7 - 0.0 - - - - - - -
02/03:00pm 11.0 ENE 19 24 1008.7 - 0.0 - Partly cloudy - - - - -
02/02:30pm 11.3 ENE 18 22 1009.0 - 0.0 - Partly cloudy - - - - -
02/02:00pm 11.4 ENE 18 21 1009.4 - 0.0 - Partly cloudy - - - - -
02/01:30pm 11.6 ENE 18 21 1009.6 - 0.0 - Partly cloudy - - - - -
02/01:00pm 11.9 ENE 18 22 1010.0 - 0.0 - Partly cloudy - - - - -
02/12:30pm 11.6 ENE 19 24 1010.5 - 0.0 - Cloudy - - - - -
02/12:00pm 11.3 ENE 19 24 1010.9 - 0.0 - Mostly cloudy - - - - -
02/11:30am 11.6 ENE 20 24 1011.2 - 0.0 - Partly cloudy - - - - -
02/11:00am 11.0 ENE 21 26 1011.3 - 0.0 - - - - - - -
02/10:30am 11.4 ENE 21 25 1011.3 - 0.0 - - - - - - -
02/10:00am 11.1 ENE 20 25 1011.5 - 0.0 - Partly cloudy - - - - -
02/09:30am 10.3 ENE 20 23 1011.9 - 0.0 - Partly cloudy - - - - -
02/09:00am 9.6 ENE 19 22 1012.0 - 0.0 - Cloudy - - - - -
02/08:30am 9.3 ENE 19 23 1011.8 - 0.0 - Cloudy - - - - -
02/08:00am 9.3 ENE 19 23 1011.7 - 0.0 - Partly cloudy - - - - -
02/07:30am 8.9 ENE 18 22 1011.8 - 0.0 - Partly cloudy - - - - -
02/07:00am 8.4 ENE 17 22 1011.9 - 0.0 - Partly cloudy - - - - -
02/06:30am 8.0 ENE 18 22 1011.7 - 0.0 - - - - - - -
02/06:00am 8.0 ENE 18 21 1011.6 - 0.0 - Cloudy - - - - -
02/05:30am 7.9 ENE 17 20 1011.7 - 0.0 - - - - - - -
02/05:00am 7.5 ENE 15 18 1011.9 - 0.0 - - - - - - -
02/04:30am 7.5 ENE 16 18 1011.9 - 0.0 - Partly cloudy - - - - -
02/04:00am 7.6 ENE 14 17 1012.0 - 0.0 - Cloudy - - - - -
02/03:30am 7.2 ENE 14 17 1012.2 - 0.0 - Cloudy - - - - -
02/03:00am 5.7 NE 11 13 1012.7 - 0.0 - Mostly cloudy - - - - -
02/02:30am 5.1 ENE 11 13 1012.9 - 0.0 - - - - - - -
02/02:00am 4.1 ENE 9 11 1013.4 - 0.0 - - - - - - -
02/01:30am 4.6 NE 9 9 1013.4 - 0.0 - - - - - - -
02/01:00am 4.5 ENE 8 9 1013.5 - 0.0 - - - - - - -
02/12:30am 4.5 ENE 8 9 1013.6 - 0.0 - - - - - - -
02/12:00am 4.6 ENE 7 8 1013.6 - 0.0 - - - - - - -
 
Date/Time
EST
Temp

°C
Wind Pressure Rain
since 9am
mm
Weather Cloud Vis
km
Sea
Height
m
Swell
Dir
 
Speed
knots
Gust
knots
hPa Trend Height
m
Period
s
Dir
01/11:30pm 4.7 NE 7 9 1014.0 - 0.0 - - - - - - -
01/11:00pm 5.2 NE 8 10 1014.1 - 0.0 - - - - - - -
01/10:30pm 4.8 ENE 6 7 1014.0 - 0.0 - - - - - - -
01/10:00pm 5.3 ENE 6 6 1014.1 - 0.0 - - - - - - -
01/09:30pm 6.1 NE 5 5 1014.2 - 0.0 - - - - - - -
01/09:00pm 6.2 NNE 3 4 1014.3 - 0.0 - - - - - - -
01/08:30pm 6.2 NNE 5 6 1014.2 - 0.0 - - - - - - -
01/08:00pm 6.6 NNW 5 7 1014.2 - 0.0 - - - - - - -
01/07:30pm 6.9 NNW 7 9 1014.0 - 0.0 - - - - - - -
01/07:00pm 7.0 NNW 7 10 1014.1 - 0.0 - - - - - - -
01/06:30pm 7.1 NW 7 10 1013.8 - 0.0 - - - - - - -
01/06:00pm 6.8 NNW 7 10 1013.6 - 0.0 - - - - - - -
01/05:30pm 7.9 NW 6 8 1013.7 - 0.0 - - - - - - -
01/05:00pm 8.3 NW 5 7 1013.4 - 0.0 - - - - - - -
01/04:30pm 8.4 NW 7 9 1013.8 - 0.0 - - - - - - -
01/04:00pm 8.6 NNW 6 8 1013.8 - 0.0 - - - - - - -
01/03:30pm 8.9 NNW 6 8 1014.1 - 0.0 - - - - - - -
01/03:00pm 9.1 NW 7 10 1014.4 - 0.0 - Mostly clear - - - - -
01/02:30pm 8.6 WSW 5 7 1014.5 - 0.0 - Cloudy - - - - -
01/02:00pm 8.8 W 5 9 1014.8 - 0.0 - Cloudy - - - - -
01/01:30pm 9.1 W 5 8 1015.3 - 0.0 - Cloudy - - - - -
01/01:00pm 9.5 WNW 7 9 1015.3 - 0.0 - Cloudy - - - - -
01/12:30pm 9.1 NW 6 8 1015.9 - 0.0 - Cloudy - - - - -
01/12:00pm 9.2 WNW 6 8 1016.2 - 0.0 - Cloudy - - - - -
01/11:30am 9.2 NNW 7 9 1016.5 - 0.0 - Cloudy - - - - -
01/11:00am 8.9 NW 7 9 1016.5 - 0.0 - Cloudy - - - - -
01/10:30am 9.3 N 5 8 1016.5 - 0.0 - Cloudy - - - - -
01/10:00am 8.8 NNW 5 9 1016.5 - 0.0 - Cloudy - - - - -

Other Formats:

Comma delimited format used in spreadsheet applications
http://www.bom.gov.au/fwo/IDV60701/IDV60701.95954.axf

JavaScript Object Notation format (JSON) in row-major order
http://www.bom.gov.au/fwo/IDV60701/IDV60701.95954.json